sensor_id;sensor_type;location;lat;lon;timestamp;P1;durP1;ratioP1;P2;durP2;ratioP2
22160;SDS011;49035;48.812;11.762;2023-04-03T00:00:28;3.07;;;2.37;;
22160;SDS011;49035;48.812;11.762;2023-04-03T00:02:54;3.77;;;2.63;;
22160;SDS011;49035;48.812;11.762;2023-04-03T00:05:20;2.67;;;2.47;;
22160;SDS011;49035;48.812;11.762;2023-04-03T00:07:45;4.53;;;2.70;;
22160;SDS011;49035;48.812;11.762;2023-04-03T00:10:11;3.40;;;2.50;;
22160;SDS011;49035;48.812;11.762;2023-04-03T00:12:37;4.17;;;2.80;;
22160;SDS011;49035;48.812;11.762;2023-04-03T00:15:02;3.20;;;2.47;;
22160;SDS011;49035;48.812;11.762;2023-04-03T00:17:28;2.90;;;2.60;;
22160;SDS011;49035;48.812;11.762;2023-04-03T00:19:54;4.07;;;2.30;;
22160;SDS011;49035;48.812;11.762;2023-04-03T00:22:20;3.50;;;2.87;;
22160;SDS011;49035;48.812;11.762;2023-04-03T00:24:45;3.53;;;2.50;;
22160;SDS011;49035;48.812;11.762;2023-04-03T00:27:11;3.83;;;2.37;;
22160;SDS011;49035;48.812;11.762;2023-04-03T00:29:36;4.53;;;2.40;;
22160;SDS011;49035;48.812;11.762;2023-04-03T00:32:02;4.07;;;2.50;;
22160;SDS011;49035;48.812;11.762;2023-04-03T00:34:28;4.37;;;2.50;;
22160;SDS011;49035;48.812;11.762;2023-04-03T00:36:53;3.57;;;2.33;;
22160;SDS011;49035;48.812;11.762;2023-04-03T00:39:19;7.10;;;2.80;;
22160;SDS011;49035;48.812;11.762;2023-04-03T00:41:45;3.37;;;2.80;;
22160;SDS011;49035;48.812;11.762;2023-04-03T00:44:20;3.97;;;2.93;;
22160;SDS011;49035;48.812;11.762;2023-04-03T00:46:52;4.60;;;3.13;;
22160;SDS011;49035;48.812;11.762;2023-04-03T00:49:18;4.77;;;3.20;;
22160;SDS011;49035;48.812;11.762;2023-04-03T00:51:43;4.93;;;3.03;;
22160;SDS011;49035;48.812;11.762;2023-04-03T00:54:09;4.70;;;2.57;;
22160;SDS011;49035;48.812;11.762;2023-04-03T00:56:35;3.90;;;2.63;;
22160;SDS011;49035;48.812;11.762;2023-04-03T00:59:12;4.90;;;2.83;;
22160;SDS011;49035;48.812;11.762;2023-04-03T01:01:41;5.00;;;2.90;;
22160;SDS011;49035;48.812;11.762;2023-04-03T01:06:53;3.77;;;2.37;;
22160;SDS011;49035;48.812;11.762;2023-04-03T01:09:21;4.10;;;2.70;;
22160;SDS011;49035;48.812;11.762;2023-04-03T01:11:47;3.30;;;2.53;;
22160;SDS011;49035;48.812;11.762;2023-04-03T01:14:13;3.07;;;2.73;;
22160;SDS011;49035;48.812;11.762;2023-04-03T01:16:39;3.20;;;2.73;;
22160;SDS011;49035;48.812;11.762;2023-04-03T01:19:05;4.23;;;2.70;;
22160;SDS011;49035;48.812;11.762;2023-04-03T01:24:30;3.77;;;2.63;;
22160;SDS011;49035;48.812;11.762;2023-04-03T01:26:59;3.73;;;2.90;;
22160;SDS011;49035;48.812;11.762;2023-04-03T01:29:27;4.27;;;3.20;;
22160;SDS011;49035;48.812;11.762;2023-04-03T01:31:53;3.40;;;2.53;;
22160;SDS011;49035;48.812;11.762;2023-04-03T01:34:21;3.20;;;2.70;;
22160;SDS011;49035;48.812;11.762;2023-04-03T01:36:47;4.30;;;2.73;;
22160;SDS011;49035;48.812;11.762;2023-04-03T01:39:13;4.63;;;2.90;;
22160;SDS011;49035;48.812;11.762;2023-04-03T01:41:39;4.03;;;2.83;;
22160;SDS011;49035;48.812;11.762;2023-04-03T01:44:05;3.97;;;2.60;;
22160;SDS011;49035;48.812;11.762;2023-04-03T01:46:31;4.33;;;2.67;;
22160;SDS011;49035;48.812;11.762;2023-04-03T01:48:56;3.43;;;2.57;;
22160;SDS011;49035;48.812;11.762;2023-04-03T01:51:22;4.07;;;3.00;;
22160;SDS011;49035;48.812;11.762;2023-04-03T01:53:47;4.43;;;2.80;;
22160;SDS011;49035;48.812;11.762;2023-04-03T01:56:13;5.10;;;2.67;;
22160;SDS011;49035;48.812;11.762;2023-04-03T01:58:39;5.67;;;3.00;;
22160;SDS011;49035;48.812;11.762;2023-04-03T02:01:04;4.40;;;2.80;;
22160;SDS011;49035;48.812;11.762;2023-04-03T02:03:31;3.53;;;2.90;;
22160;SDS011;49035;48.812;11.762;2023-04-03T02:05:56;3.97;;;2.67;;
22160;SDS011;49035;48.812;11.762;2023-04-03T02:08:22;6.33;;;2.90;;
22160;SDS011;49035;48.812;11.762;2023-04-03T02:10:48;3.53;;;2.90;;
22160;SDS011;49035;48.812;11.762;2023-04-03T02:13:15;2.60;;;2.40;;
22160;SDS011;49035;48.812;11.762;2023-04-03T02:15:41;4.23;;;2.80;;
22160;SDS011;49035;48.812;11.762;2023-04-03T02:18:07;5.13;;;2.93;;
22160;SDS011;49035;48.812;11.762;2023-04-03T02:20:33;3.67;;;2.57;;
22160;SDS011;49035;48.812;11.762;2023-04-03T02:22:59;3.00;;;2.70;;
22160;SDS011;49035;48.812;11.762;2023-04-03T02:25:25;4.83;;;2.97;;
22160;SDS011;49035;48.812;11.762;2023-04-03T02:27:51;5.17;;;2.80;;
22160;SDS011;49035;48.812;11.762;2023-04-03T02:30:16;3.13;;;2.80;;
22160;SDS011;49035;48.812;11.762;2023-04-03T02:32:42;3.83;;;2.70;;
22160;SDS011;49035;48.812;11.762;2023-04-03T02:35:09;3.27;;;2.47;;
22160;SDS011;49035;48.812;11.762;2023-04-03T02:37:36;3.53;;;2.90;;
22160;SDS011;49035;48.812;11.762;2023-04-03T02:40:02;6.80;;;2.50;;
22160;SDS011;49035;48.812;11.762;2023-04-03T02:42:29;3.27;;;2.70;;
22160;SDS011;49035;48.812;11.762;2023-04-03T02:44:54;3.83;;;3.37;;
22160;SDS011;49035;48.812;11.762;2023-04-03T02:47:20;3.70;;;3.00;;
22160;SDS011;49035;48.812;11.762;2023-04-03T02:49:46;3.33;;;2.80;;
22160;SDS011;49035;48.812;11.762;2023-04-03T02:52:12;3.73;;;2.77;;
22160;SDS011;49035;48.812;11.762;2023-04-03T02:54:38;4.57;;;2.60;;
22160;SDS011;49035;48.812;11.762;2023-04-03T02:57:04;3.97;;;2.97;;
22160;SDS011;49035;48.812;11.762;2023-04-03T02:59:30;4.13;;;2.80;;
22160;SDS011;49035;48.812;11.762;2023-04-03T03:01:55;4.73;;;2.80;;
22160;SDS011;49035;48.812;11.762;2023-04-03T03:04:21;4.97;;;3.03;;
22160;SDS011;49035;48.812;11.762;2023-04-03T03:06:47;3.70;;;2.90;;
22160;SDS011;49035;48.812;11.762;2023-04-03T03:09:13;4.27;;;2.93;;
22160;SDS011;49035;48.812;11.762;2023-04-03T03:11:39;3.27;;;2.50;;
22160;SDS011;49035;48.812;11.762;2023-04-03T03:14:04;3.07;;;2.77;;
22160;SDS011;49035;48.812;11.762;2023-04-03T03:16:30;6.37;;;3.13;;
22160;SDS011;49035;48.812;11.762;2023-04-03T03:18:56;3.90;;;3.10;;
22160;SDS011;49035;48.812;11.762;2023-04-03T03:21:21;4.57;;;3.43;;
22160;SDS011;49035;48.812;11.762;2023-04-03T03:23:47;3.33;;;2.77;;
22160;SDS011;49035;48.812;11.762;2023-04-03T03:26:13;4.70;;;2.90;;
22160;SDS011;49035;48.812;11.762;2023-04-03T03:28:39;5.07;;;3.00;;
22160;SDS011;49035;48.812;11.762;2023-04-03T03:31:05;5.00;;;2.83;;
22160;SDS011;49035;48.812;11.762;2023-04-03T03:33:32;3.77;;;3.00;;
22160;SDS011;49035;48.812;11.762;2023-04-03T03:35:57;3.67;;;3.17;;
22160;SDS011;49035;48.812;11.762;2023-04-03T03:38:23;3.60;;;3.10;;
22160;SDS011;49035;48.812;11.762;2023-04-03T03:40:49;5.13;;;3.00;;
22160;SDS011;49035;48.812;11.762;2023-04-03T03:43:16;3.90;;;2.70;;
22160;SDS011;49035;48.812;11.762;2023-04-03T03:45:42;5.97;;;3.30;;
22160;SDS011;49035;48.812;11.762;2023-04-03T03:48:08;5.73;;;3.40;;
22160;SDS011;49035;48.812;11.762;2023-04-03T03:50:33;4.43;;;2.70;;
22160;SDS011;49035;48.812;11.762;2023-04-03T03:52:59;4.83;;;3.20;;
22160;SDS011;49035;48.812;11.762;2023-04-03T03:55:25;4.03;;;3.13;;
22160;SDS011;49035;48.812;11.762;2023-04-03T03:57:51;4.13;;;3.10;;
22160;SDS011;49035;48.812;11.762;2023-04-03T04:00:16;3.93;;;2.87;;
22160;SDS011;49035;48.812;11.762;2023-04-03T04:02:42;4.77;;;2.77;;
22160;SDS011;49035;48.812;11.762;2023-04-03T04:05:08;5.03;;;3.13;;
22160;SDS011;49035;48.812;11.762;2023-04-03T04:07:34;4.57;;;3.10;;
22160;SDS011;49035;48.812;11.762;2023-04-03T04:10:00;3.30;;;2.73;;
22160;SDS011;49035;48.812;11.762;2023-04-03T04:12:26;6.53;;;3.03;;
22160;SDS011;49035;48.812;11.762;2023-04-03T04:14:51;3.70;;;2.97;;
22160;SDS011;49035;48.812;11.762;2023-04-03T04:17:17;4.57;;;3.13;;
22160;SDS011;49035;48.812;11.762;2023-04-03T04:19:42;5.90;;;3.17;;
22160;SDS011;49035;48.812;11.762;2023-04-03T04:22:08;4.83;;;2.73;;
22160;SDS011;49035;48.812;11.762;2023-04-03T04:24:34;4.60;;;3.17;;
22160;SDS011;49035;48.812;11.762;2023-04-03T04:26:59;3.93;;;2.70;;
22160;SDS011;49035;48.812;11.762;2023-04-03T04:29:25;4.77;;;3.00;;
22160;SDS011;49035;48.812;11.762;2023-04-03T04:31:50;3.23;;;2.70;;
22160;SDS011;49035;48.812;11.762;2023-04-03T04:34:16;3.33;;;2.77;;
22160;SDS011;49035;48.812;11.762;2023-04-03T04:36:41;5.67;;;2.97;;
22160;SDS011;49035;48.812;11.762;2023-04-03T04:39:07;4.00;;;3.00;;
22160;SDS011;49035;48.812;11.762;2023-04-03T04:41:33;3.53;;;3.00;;
22160;SDS011;49035;48.812;11.762;2023-04-03T04:43:59;6.40;;;3.17;;
22160;SDS011;49035;48.812;11.762;2023-04-03T04:46:25;3.03;;;2.70;;
22160;SDS011;49035;48.812;11.762;2023-04-03T04:48:51;4.13;;;3.07;;
22160;SDS011;49035;48.812;11.762;2023-04-03T04:51:17;4.63;;;2.60;;
22160;SDS011;49035;48.812;11.762;2023-04-03T04:53:43;7.43;;;3.10;;
22160;SDS011;49035;48.812;11.762;2023-04-03T04:56:09;4.10;;;2.93;;
22160;SDS011;49035;48.812;11.762;2023-04-03T04:58:35;7.63;;;3.37;;
22160;SDS011;49035;48.812;11.762;2023-04-03T05:03:30;4.07;;;2.90;;
22160;SDS011;49035;48.812;11.762;2023-04-03T05:05:56;4.43;;;3.13;;
22160;SDS011;49035;48.812;11.762;2023-04-03T05:08:23;4.77;;;3.07;;
22160;SDS011;49035;48.812;11.762;2023-04-03T05:10:48;5.93;;;3.03;;
22160;SDS011;49035;48.812;11.762;2023-04-03T05:13:14;3.20;;;2.90;;
22160;SDS011;49035;48.812;11.762;2023-04-03T05:15:40;3.80;;;2.63;;
22160;SDS011;49035;48.812;11.762;2023-04-03T05:18:06;4.40;;;2.90;;
22160;SDS011;49035;48.812;11.762;2023-04-03T05:20:32;3.17;;;2.70;;
22160;SDS011;49035;48.812;11.762;2023-04-03T05:22:58;3.33;;;2.57;;
22160;SDS011;49035;48.812;11.762;2023-04-03T05:25:24;5.50;;;3.30;;
22160;SDS011;49035;48.812;11.762;2023-04-03T05:27:59;4.13;;;3.00;;
22160;SDS011;49035;48.812;11.762;2023-04-03T05:30:25;5.90;;;2.80;;
22160;SDS011;49035;48.812;11.762;2023-04-03T05:32:50;6.23;;;3.07;;
22160;SDS011;49035;48.812;11.762;2023-04-03T05:35:16;4.40;;;2.83;;
22160;SDS011;49035;48.812;11.762;2023-04-03T05:37:42;4.40;;;2.83;;
22160;SDS011;49035;48.812;11.762;2023-04-03T05:40:07;2.80;;;2.60;;
22160;SDS011;49035;48.812;11.762;2023-04-03T05:42:33;4.97;;;2.77;;
22160;SDS011;49035;48.812;11.762;2023-04-03T05:44:59;4.13;;;2.97;;
22160;SDS011;49035;48.812;11.762;2023-04-03T05:47:25;4.20;;;2.97;;
22160;SDS011;49035;48.812;11.762;2023-04-03T05:49:51;4.47;;;2.77;;
22160;SDS011;49035;48.812;11.762;2023-04-03T05:52:25;5.13;;;3.07;;
22160;SDS011;49035;48.812;11.762;2023-04-03T05:54:53;4.73;;;2.70;;
22160;SDS011;49035;48.812;11.762;2023-04-03T05:57:19;4.40;;;3.07;;
22160;SDS011;49035;48.812;11.762;2023-04-03T05:59:45;4.33;;;3.07;;
22160;SDS011;49035;48.812;11.762;2023-04-03T06:02:19;6.47;;;2.70;;
22160;SDS011;49035;48.812;11.762;2023-04-03T06:04:47;2.87;;;2.57;;
22160;SDS011;49035;48.812;11.762;2023-04-03T06:07:13;4.57;;;2.97;;
22160;SDS011;49035;48.812;11.762;2023-04-03T06:09:41;4.77;;;2.90;;
22160;SDS011;49035;48.812;11.762;2023-04-03T06:12:07;3.83;;;2.83;;
22160;SDS011;49035;48.812;11.762;2023-04-03T06:14:34;5.23;;;3.40;;
22160;SDS011;49035;48.812;11.762;2023-04-03T06:17:00;8.63;;;3.10;;
22160;SDS011;49035;48.812;11.762;2023-04-03T06:19:26;6.97;;;3.30;;
22160;SDS011;49035;48.812;11.762;2023-04-03T06:21:52;4.67;;;2.70;;
22160;SDS011;49035;48.812;11.762;2023-04-03T06:24:18;6.53;;;2.47;;
22160;SDS011;49035;48.812;11.762;2023-04-03T06:26:45;5.43;;;3.40;;
22160;SDS011;49035;48.812;11.762;2023-04-03T06:29:11;5.83;;;3.10;;
22160;SDS011;49035;48.812;11.762;2023-04-03T06:31:36;5.80;;;3.20;;
22160;SDS011;49035;48.812;11.762;2023-04-03T06:34:02;5.27;;;3.30;;
22160;SDS011;49035;48.812;11.762;2023-04-03T06:36:29;4.67;;;3.13;;
22160;SDS011;49035;48.812;11.762;2023-04-03T06:38:54;4.37;;;3.50;;
22160;SDS011;49035;48.812;11.762;2023-04-03T06:41:20;4.27;;;3.07;;
22160;SDS011;49035;48.812;11.762;2023-04-03T06:43:46;5.50;;;3.40;;
22160;SDS011;49035;48.812;11.762;2023-04-03T06:46:21;4.67;;;3.30;;
22160;SDS011;49035;48.812;11.762;2023-04-03T06:48:47;7.03;;;3.90;;
22160;SDS011;49035;48.812;11.762;2023-04-03T06:51:16;6.13;;;3.33;;
22160;SDS011;49035;48.812;11.762;2023-04-03T06:53:43;5.77;;;3.90;;
22160;SDS011;49035;48.812;11.762;2023-04-03T06:56:10;6.40;;;3.57;;
22160;SDS011;49035;48.812;11.762;2023-04-03T06:58:36;5.27;;;3.73;;
22160;SDS011;49035;48.812;11.762;2023-04-03T07:01:01;6.60;;;3.43;;
22160;SDS011;49035;48.812;11.762;2023-04-03T07:03:27;5.53;;;3.60;;
22160;SDS011;49035;48.812;11.762;2023-04-03T07:05:52;6.63;;;3.93;;
22160;SDS011;49035;48.812;11.762;2023-04-03T07:08:18;7.23;;;3.63;;
22160;SDS011;49035;48.812;11.762;2023-04-03T07:10:43;6.97;;;3.87;;
22160;SDS011;49035;48.812;11.762;2023-04-03T07:13:09;6.83;;;4.27;;
22160;SDS011;49035;48.812;11.762;2023-04-03T07:15:35;5.20;;;3.87;;
22160;SDS011;49035;48.812;11.762;2023-04-03T07:18:02;7.60;;;3.67;;
22160;SDS011;49035;48.812;11.762;2023-04-03T07:20:27;6.90;;;3.70;;
22160;SDS011;49035;48.812;11.762;2023-04-03T07:22:53;10.67;;;3.70;;
22160;SDS011;49035;48.812;11.762;2023-04-03T07:25:19;4.53;;;3.53;;
22160;SDS011;49035;48.812;11.762;2023-04-03T07:27:44;7.93;;;3.87;;
22160;SDS011;49035;48.812;11.762;2023-04-03T07:30:10;4.57;;;3.27;;
22160;SDS011;49035;48.812;11.762;2023-04-03T07:32:36;5.17;;;3.63;;
22160;SDS011;49035;48.812;11.762;2023-04-03T07:35:02;5.47;;;3.63;;
22160;SDS011;49035;48.812;11.762;2023-04-03T07:37:28;6.03;;;4.03;;
22160;SDS011;49035;48.812;11.762;2023-04-03T07:39:54;6.83;;;4.07;;
22160;SDS011;49035;48.812;11.762;2023-04-03T07:42:20;8.47;;;3.57;;
22160;SDS011;49035;48.812;11.762;2023-04-03T07:44:46;5.60;;;3.80;;
22160;SDS011;49035;48.812;11.762;2023-04-03T07:47:12;3.83;;;3.27;;
22160;SDS011;49035;48.812;11.762;2023-04-03T07:49:39;3.93;;;3.00;;
22160;SDS011;49035;48.812;11.762;2023-04-03T07:52:05;6.50;;;4.07;;
22160;SDS011;49035;48.812;11.762;2023-04-03T07:54:32;5.53;;;3.80;;
22160;SDS011;49035;48.812;11.762;2023-04-03T07:56:58;10.00;;;4.40;;
22160;SDS011;49035;48.812;11.762;2023-04-03T07:59:24;9.17;;;3.60;;
22160;SDS011;49035;48.812;11.762;2023-04-03T08:01:50;6.60;;;3.37;;
22160;SDS011;49035;48.812;11.762;2023-04-03T08:04:15;7.47;;;4.07;;
22160;SDS011;49035;48.812;11.762;2023-04-03T08:06:41;4.70;;;3.23;;
22160;SDS011;49035;48.812;11.762;2023-04-03T08:09:06;3.93;;;2.90;;
22160;SDS011;49035;48.812;11.762;2023-04-03T08:11:33;3.93;;;3.03;;
22160;SDS011;49035;48.812;11.762;2023-04-03T08:13:58;4.20;;;3.30;;
22160;SDS011;49035;48.812;11.762;2023-04-03T08:16:24;5.60;;;3.43;;
22160;SDS011;49035;48.812;11.762;2023-04-03T08:18:52;5.03;;;2.97;;
22160;SDS011;49035;48.812;11.762;2023-04-03T08:21:17;5.53;;;3.30;;
22160;SDS011;49035;48.812;11.762;2023-04-03T08:23:43;6.17;;;3.27;;
22160;SDS011;49035;48.812;11.762;2023-04-03T08:26:10;5.33;;;3.17;;
22160;SDS011;49035;48.812;11.762;2023-04-03T08:28:37;4.90;;;3.00;;
22160;SDS011;49035;48.812;11.762;2023-04-03T08:31:07;4.53;;;3.07;;
22160;SDS011;49035;48.812;11.762;2023-04-03T08:33:37;4.60;;;3.23;;
22160;SDS011;49035;48.812;11.762;2023-04-03T08:36:03;5.80;;;2.80;;
22160;SDS011;49035;48.812;11.762;2023-04-03T08:38:30;5.40;;;3.00;;
22160;SDS011;49035;48.812;11.762;2023-04-03T08:41:01;4.33;;;2.77;;
22160;SDS011;49035;48.812;11.762;2023-04-03T08:46:11;4.43;;;2.80;;
22160;SDS011;49035;48.812;11.762;2023-04-03T08:48:41;4.40;;;2.90;;
22160;SDS011;49035;48.812;11.762;2023-04-03T08:51:12;7.03;;;2.83;;
22160;SDS011;49035;48.812;11.762;2023-04-03T08:53:41;4.07;;;2.50;;
22160;SDS011;49035;48.812;11.762;2023-04-03T08:56:21;5.80;;;2.60;;
22160;SDS011;49035;48.812;11.762;2023-04-03T08:58:55;5.20;;;2.63;;
22160;SDS011;49035;48.812;11.762;2023-04-03T09:01:36;4.67;;;2.37;;
22160;SDS011;49035;48.812;11.762;2023-04-03T09:04:09;5.23;;;3.10;;
22160;SDS011;49035;48.812;11.762;2023-04-03T09:06:39;3.43;;;2.03;;
22160;SDS011;49035;48.812;11.762;2023-04-03T09:12:17;4.30;;;2.03;;
22160;SDS011;49035;48.812;11.762;2023-04-03T09:20:21;2.67;;;2.47;;
22160;SDS011;49035;48.812;11.762;2023-04-03T09:23:01;2.27;;;1.90;;
22160;SDS011;49035;48.812;11.762;2023-04-03T09:25:40;4.03;;;1.93;;
22160;SDS011;49035;48.812;11.762;2023-04-03T09:28:07;2.43;;;2.00;;
22160;SDS011;49035;48.812;11.762;2023-04-03T09:30:35;3.43;;;2.20;;
22160;SDS011;49035;48.812;11.762;2023-04-03T09:33:00;2.63;;;2.10;;
22160;SDS011;49035;48.812;11.762;2023-04-03T09:35:34;5.57;;;1.90;;
22160;SDS011;49035;48.812;11.762;2023-04-03T09:40:51;5.57;;;2.30;;
22160;SDS011;49035;48.812;11.762;2023-04-03T09:43:33;7.03;;;2.63;;
22160;SDS011;49035;48.812;11.762;2023-04-03T09:46:19;4.57;;;2.20;;
22160;SDS011;49035;48.812;11.762;2023-04-03T09:49:04;3.33;;;1.93;;
22160;SDS011;49035;48.812;11.762;2023-04-03T09:51:30;2.60;;;1.90;;
22160;SDS011;49035;48.812;11.762;2023-04-03T09:53:56;2.77;;;1.50;;
22160;SDS011;49035;48.812;11.762;2023-04-03T09:56:24;4.37;;;2.00;;
22160;SDS011;49035;48.812;11.762;2023-04-03T10:01:36;3.17;;;1.60;;
22160;SDS011;49035;48.812;11.762;2023-04-03T10:06:33;3.13;;;1.50;;
22160;SDS011;49035;48.812;11.762;2023-04-03T10:09:07;5.30;;;1.80;;
22160;SDS011;49035;48.812;11.762;2023-04-03T10:12:08;2.63;;;1.80;;
22160;SDS011;49035;48.812;11.762;2023-04-03T10:14:58;2.10;;;1.30;;
22160;SDS011;49035;48.812;11.762;2023-04-03T10:23:05;4.13;;;1.57;;
22160;SDS011;49035;48.812;11.762;2023-04-03T10:25:42;2.63;;;1.40;;
22160;SDS011;49035;48.812;11.762;2023-04-03T10:28:26;2.07;;;1.47;;
22160;SDS011;49035;48.812;11.762;2023-04-03T10:31:14;3.37;;;1.40;;
22160;SDS011;49035;48.812;11.762;2023-04-03T10:39:53;2.20;;;1.30;;
22160;SDS011;49035;48.812;11.762;2023-04-03T10:42:43;1.70;;;1.30;;
22160;SDS011;49035;48.812;11.762;2023-04-03T10:56:15;6.07;;;1.40;;
22160;SDS011;49035;48.812;11.762;2023-04-03T10:59:25;1.90;;;1.10;;
22160;SDS011;49035;48.812;11.762;2023-04-03T11:01:56;3.73;;;1.47;;
22160;SDS011;49035;48.812;11.762;2023-04-03T11:04:26;1.83;;;1.13;;
22160;SDS011;49035;48.812;11.762;2023-04-03T11:07:02;1.50;;;1.30;;
22160;SDS011;49035;48.812;11.762;2023-04-03T11:09:35;2.50;;;1.23;;
22160;SDS011;49035;48.812;11.762;2023-04-03T11:12:06;2.17;;;1.20;;
22160;SDS011;49035;48.812;11.762;2023-04-03T11:14:42;2.37;;;1.30;;
22160;SDS011;49035;48.812;11.762;2023-04-03T11:19:57;2.13;;;1.40;;
22160;SDS011;49035;48.812;11.762;2023-04-03T11:22:47;1.37;;;1.07;;
22160;SDS011;49035;48.812;11.762;2023-04-03T11:25:20;2.93;;;1.23;;
22160;SDS011;49035;48.812;11.762;2023-04-03T11:27:55;2.97;;;1.30;;
22160;SDS011;49035;48.812;11.762;2023-04-03T11:30:33;2.20;;;1.37;;
22160;SDS011;49035;48.812;11.762;2023-04-03T11:35:51;1.20;;;1.10;;
22160;SDS011;49035;48.812;11.762;2023-04-03T11:38:38;2.10;;;1.20;;
22160;SDS011;49035;48.812;11.762;2023-04-03T11:41:08;1.60;;;1.23;;
22160;SDS011;49035;48.812;11.762;2023-04-03T11:43:39;2.50;;;1.57;;
22160;SDS011;49035;48.812;11.762;2023-04-03T11:46:07;16.83;;;1.60;;
22160;SDS011;49035;48.812;11.762;2023-04-03T11:51:00;7.10;;;1.30;;
22160;SDS011;49035;48.812;11.762;2023-04-03T11:53:36;3.00;;;1.33;;
22160;SDS011;49035;48.812;11.762;2023-04-03T12:01:43;1.50;;;1.00;;
22160;SDS011;49035;48.812;11.762;2023-04-03T12:04:20;1.53;;;1.10;;
22160;SDS011;49035;48.812;11.762;2023-04-03T12:09:27;4.07;;;1.60;;
22160;SDS011;49035;48.812;11.762;2023-04-03T12:12:22;2.47;;;1.30;;
22160;SDS011;49035;48.812;11.762;2023-04-03T12:15:17;2.90;;;1.30;;
22160;SDS011;49035;48.812;11.762;2023-04-03T12:17:48;3.13;;;1.13;;
22160;SDS011;49035;48.812;11.762;2023-04-03T12:23:33;1.63;;;1.20;;
22160;SDS011;49035;48.812;11.762;2023-04-03T12:26:05;1.30;;;1.20;;
22160;SDS011;49035;48.812;11.762;2023-04-03T12:28:46;5.60;;;1.33;;
22160;SDS011;49035;48.812;11.762;2023-04-03T12:31:14;2.30;;;1.27;;
22160;SDS011;49035;48.812;11.762;2023-04-03T12:34:04;2.27;;;1.30;;
22160;SDS011;49035;48.812;11.762;2023-04-03T12:36:51;4.20;;;1.40;;
22160;SDS011;49035;48.812;11.762;2023-04-03T12:45:26;1.13;;;1.03;;
22160;SDS011;49035;48.812;11.762;2023-04-03T12:47:53;2.70;;;1.40;;
22160;SDS011;49035;48.812;11.762;2023-04-03T12:53:05;2.57;;;1.10;;
22160;SDS011;49035;48.812;11.762;2023-04-03T12:55:37;3.03;;;1.50;;
22160;SDS011;49035;48.812;11.762;2023-04-03T12:58:16;1.13;;;1.00;;
22160;SDS011;49035;48.812;11.762;2023-04-03T13:00:57;1.80;;;1.17;;
22160;SDS011;49035;48.812;11.762;2023-04-03T13:03:28;2.90;;;1.83;;
22160;SDS011;49035;48.812;11.762;2023-04-03T13:05:59;2.20;;;1.03;;
22160;SDS011;49035;48.812;11.762;2023-04-03T13:08:26;2.27;;;1.20;;
22160;SDS011;49035;48.812;11.762;2023-04-03T13:11:09;2.60;;;1.27;;
22160;SDS011;49035;48.812;11.762;2023-04-03T13:13:36;1.90;;;1.40;;
22160;SDS011;49035;48.812;11.762;2023-04-03T13:16:10;3.23;;;1.40;;
22160;SDS011;49035;48.812;11.762;2023-04-03T13:18:38;3.47;;;1.30;;
22160;SDS011;49035;48.812;11.762;2023-04-03T13:21:05;1.50;;;1.10;;
22160;SDS011;49035;48.812;11.762;2023-04-03T13:23:36;3.57;;;1.40;;
22160;SDS011;49035;48.812;11.762;2023-04-03T13:26:05;2.07;;;1.20;;
22160;SDS011;49035;48.812;11.762;2023-04-03T13:28:31;1.77;;;1.40;;
22160;SDS011;49035;48.812;11.762;2023-04-03T13:31:00;1.43;;;1.20;;
22160;SDS011;49035;48.812;11.762;2023-04-03T13:36:40;2.73;;;1.40;;
22160;SDS011;49035;48.812;11.762;2023-04-03T13:39:23;1.93;;;1.33;;
22160;SDS011;49035;48.812;11.762;2023-04-03T13:41:51;1.43;;;0.90;;
22160;SDS011;49035;48.812;11.762;2023-04-03T13:52:29;2.83;;;1.30;;
22160;SDS011;49035;48.812;11.762;2023-04-03T13:55:02;1.67;;;1.50;;
22160;SDS011;49035;48.812;11.762;2023-04-03T13:57:58;3.90;;;1.33;;
22160;SDS011;49035;48.812;11.762;2023-04-03T14:00:47;8.30;;;1.90;;
22160;SDS011;49035;48.812;11.762;2023-04-03T14:03:38;3.97;;;2.90;;
22160;SDS011;49035;48.812;11.762;2023-04-03T14:06:04;2.90;;;1.50;;
22160;SDS011;49035;48.812;11.762;2023-04-03T14:08:31;2.23;;;1.30;;
22160;SDS011;49035;48.812;11.762;2023-04-03T14:10:57;2.73;;;1.30;;
22160;SDS011;49035;48.812;11.762;2023-04-03T14:13:22;3.50;;;1.30;;
22160;SDS011;49035;48.812;11.762;2023-04-03T14:15:48;2.80;;;1.40;;
22160;SDS011;49035;48.812;11.762;2023-04-03T14:18:16;3.83;;;1.33;;
22160;SDS011;49035;48.812;11.762;2023-04-03T14:20:44;2.07;;;1.57;;
22160;SDS011;49035;48.812;11.762;2023-04-03T14:23:10;2.80;;;1.50;;
22160;SDS011;49035;48.812;11.762;2023-04-03T14:25:36;3.47;;;1.33;;
22160;SDS011;49035;48.812;11.762;2023-04-03T14:28:12;1.47;;;1.37;;
22160;SDS011;49035;48.812;11.762;2023-04-03T14:30:40;1.27;;;1.10;;
22160;SDS011;49035;48.812;11.762;2023-04-03T14:33:06;1.40;;;1.03;;
22160;SDS011;49035;48.812;11.762;2023-04-03T14:35:36;2.60;;;1.07;;
22160;SDS011;49035;48.812;11.762;2023-04-03T14:38:02;3.00;;;1.53;;
22160;SDS011;49035;48.812;11.762;2023-04-03T14:40:30;2.20;;;1.33;;
22160;SDS011;49035;48.812;11.762;2023-04-03T14:42:56;1.83;;;1.20;;
22160;SDS011;49035;48.812;11.762;2023-04-03T14:45:23;1.73;;;1.10;;
22160;SDS011;49035;48.812;11.762;2023-04-03T14:47:49;1.93;;;1.33;;
22160;SDS011;49035;48.812;11.762;2023-04-03T14:50:19;2.60;;;1.37;;
22160;SDS011;49035;48.812;11.762;2023-04-03T14:52:50;1.97;;;1.50;;
22160;SDS011;49035;48.812;11.762;2023-04-03T14:55:17;1.57;;;1.13;;
22160;SDS011;49035;48.812;11.762;2023-04-03T14:57:44;1.47;;;1.30;;
22160;SDS011;49035;48.812;11.762;2023-04-03T15:00:14;1.30;;;1.20;;
22160;SDS011;49035;48.812;11.762;2023-04-03T15:02:41;3.80;;;1.27;;
22160;SDS011;49035;48.812;11.762;2023-04-03T15:05:08;2.60;;;1.20;;
22160;SDS011;49035;48.812;11.762;2023-04-03T15:07:36;1.83;;;1.33;;
22160;SDS011;49035;48.812;11.762;2023-04-03T15:12:39;3.23;;;1.30;;
22160;SDS011;49035;48.812;11.762;2023-04-03T15:15:05;1.40;;;1.30;;
22160;SDS011;49035;48.812;11.762;2023-04-03T15:17:31;3.57;;;1.30;;
22160;SDS011;49035;48.812;11.762;2023-04-03T15:19:58;3.13;;;1.23;;
22160;SDS011;49035;48.812;11.762;2023-04-03T15:22:24;2.97;;;1.30;;
22160;SDS011;49035;48.812;11.762;2023-04-03T15:24:49;2.77;;;1.70;;
22160;SDS011;49035;48.812;11.762;2023-04-03T15:27:15;4.10;;;1.43;;
22160;SDS011;49035;48.812;11.762;2023-04-03T15:29:42;2.77;;;1.50;;
22160;SDS011;49035;48.812;11.762;2023-04-03T15:32:09;3.47;;;1.77;;
22160;SDS011;49035;48.812;11.762;2023-04-03T15:34:35;2.23;;;1.57;;
22160;SDS011;49035;48.812;11.762;2023-04-03T15:37:01;3.53;;;1.53;;
22160;SDS011;49035;48.812;11.762;2023-04-03T15:39:26;6.60;;;1.47;;
22160;SDS011;49035;48.812;11.762;2023-04-03T15:41:53;5.07;;;1.60;;
22160;SDS011;49035;48.812;11.762;2023-04-03T15:44:19;1.80;;;1.20;;
22160;SDS011;49035;48.812;11.762;2023-04-03T15:46:46;1.43;;;1.13;;
22160;SDS011;49035;48.812;11.762;2023-04-03T15:49:16;1.37;;;1.20;;
22160;SDS011;49035;48.812;11.762;2023-04-03T15:51:43;3.20;;;1.20;;
22160;SDS011;49035;48.812;11.762;2023-04-03T15:54:09;2.20;;;1.37;;
22160;SDS011;49035;48.812;11.762;2023-04-03T15:56:35;1.90;;;1.43;;
22160;SDS011;49035;48.812;11.762;2023-04-03T15:59:01;2.60;;;1.40;;
22160;SDS011;49035;48.812;11.762;2023-04-03T16:01:27;1.43;;;1.27;;
22160;SDS011;49035;48.812;11.762;2023-04-03T16:03:52;1.90;;;1.33;;
22160;SDS011;49035;48.812;11.762;2023-04-03T16:06:18;3.57;;;1.30;;
22160;SDS011;49035;48.812;11.762;2023-04-03T16:08:44;1.83;;;1.60;;
22160;SDS011;49035;48.812;11.762;2023-04-03T16:11:12;2.33;;;1.67;;
22160;SDS011;49035;48.812;11.762;2023-04-03T16:13:38;6.13;;;2.07;;